Time;durP1;ratioP1;P1;durP2;ratioP2;P2;SDS_P1;SDS_P2;PMS_P1;PMS_P2;Temp;Humidity;BMP_temperature;BMP_pressure;BME280_temperature;BME280_humidity;BME280_pressure;Samples;Min_cycle;Max_cycle;Signal;HPM_P1;HPM_P2
2022/08/23 00:01:42;;;;;;;16.45;8.20;;;17.20;1.00;;;;;;5046826;28;20041;-78
2022/08/23 00:04:16;;;;;;;13.23;6.13;;;17.30;1.00;;;;;;5017108;28;20037;-78
2022/08/23 00:06:43;;;;;;;11.20;6.60;;;17.10;1.00;;;;;;5029793;28;20037;-78
2022/08/23 00:09:09;;;;;;;12.98;8.00;;;16.70;1.00;;;;;;5034121;28;20201;-78
2022/08/23 00:11:37;;;;;;;16.05;8.02;;;17.30;1.00;;;;;;5027819;28;20468;-78
2022/08/23 00:14:07;;;;;;;13.63;7.40;;;17.10;1.00;;;;;;5020724;28;20545;-78
2022/08/23 00:16:34;;;;;;;17.27;8.93;;;17.10;1.00;;;;;;5018825;28;20093;-78
2022/08/23 00:19:01;;;;;;;13.50;8.23;;;16.80;1.00;;;;;;5043334;28;20403;-78
2022/08/23 00:21:28;;;;;;;15.40;8.77;;;16.80;1.00;;;;;;5020238;28;20073;-78
2022/08/23 00:23:54;;;;;;;16.70;9.10;;;16.80;1.00;;;;;;5035635;28;20048;-78
2022/08/23 00:26:20;;;;;;;18.80;10.05;;;16.60;1.00;;;;;;5042812;28;20060;-78
2022/08/23 00:28:48;;;;;;;18.05;9.52;;;17.10;1.00;;;;;;5019745;28;20037;-78
2022/08/23 00:31:15;;;;;;;16.10;9.38;;;17.10;1.00;;;;;;5035928;28;20393;-78
2022/08/23 00:33:41;;;;;;;16.35;9.98;;;16.60;1.00;;;;;;5026549;28;20048;-78
2022/08/23 00:36:06;;;;;;;15.57;9.73;;;17.00;1.00;;;;;;5040971;28;20029;-78
2022/08/23 00:38:32;;;;;;;16.80;9.57;;;;;;;;;;5026459;28;20037;-79
2022/08/23 00:40:58;;;;;;;18.73;9.38;;;17.10;1.00;;;;;;5013462;28;20060;-78
2022/08/23 00:49:23;;;;;;;18.63;10.15;;;17.10;1.00;;;;;;5025378;28;20052;-79
2022/08/23 00:52:07;;;;;;;13.30;8.40;;;17.10;1.00;;;;;;5015795;28;20064;-78
2022/08/23 00:54:35;;;;;;;21.90;9.63;;;16.90;1.00;;;;;;5039354;28;20277;-78
2022/08/23 00:57:04;;;;;;;16.20;9.40;;;17.20;1.00;;;;;;5020382;28;20037;-78
2022/08/23 00:59:31;;;;;;;17.58;9.20;;;17.00;1.00;;;;;;5046183;28;20358;-79
2022/08/23 01:01:58;;;;;;;16.67;10.15;;;16.90;1.00;;;;;;5027424;28;20033;-78
2022/08/23 01:04:29;;;;;;;13.10;9.60;;;17.30;1.00;;;;;;5015927;28;20137;-78
2022/08/23 01:07:36;;;;;;;16.27;8.65;;;17.20;1.00;;;;;;5028972;28;20041;-78
2022/08/23 01:10:08;;;;;;;14.90;9.05;;;;;;;;;;4984498;28;20510;-78
2022/08/23 01:12:45;;;;;;;15.07;9.95;;;16.90;1.00;;;;;;5017400;28;20501;-78
2022/08/23 01:15:30;;;;;;;17.38;9.93;;;;;;;;;;5044127;28;20048;-80
2022/08/23 01:18:04;;;;;;;14.82;8.75;;;17.20;1.00;;;;;;5025832;28;20049;-78
2022/08/23 01:20:47;;;;;;;15.13;8.82;;;17.20;1.00;;;;;;5016047;28;20048;-78
2022/08/23 01:23:21;;;;;;;13.77;9.52;;;;;;;;;;5045542;28;20120;-78
2022/08/23 01:25:47;;;;;;;17.63;9.77;;;17.10;1.00;;;;;;5046695;28;20055;-79
2022/08/23 01:28:13;;;;;;;14.90;10.85;;;16.60;1.00;;;;;;5003183;28;20413;-78
2022/08/23 01:30:42;;;;;;;16.10;9.35;;;16.90;1.00;;;;;;5029776;28;20040;-78
2022/08/23 01:33:09;;;;;;;17.40;10.27;;;16.50;1.00;;;;;;5034131;28;20029;-78
2022/08/23 01:35:43;;;;;;;14.20;10.40;;;16.50;1.00;;;;;;5025387;28;20514;-78
2022/08/23 01:38:12;;;;;;;18.25;10.23;;;17.00;1.00;;;;;;5031091;28;20037;-78
2022/08/23 01:40:38;;;;;;;15.20;10.57;;;16.60;1.00;;;;;;5033549;28;20105;-78
2022/08/23 01:43:05;;;;;;;17.55;11.20;;;16.40;1.00;;;;;;5030406;28;20037;-78
2022/08/23 01:45:32;;;;;;;18.85;12.18;;;16.80;1.00;;;;;;5051640;28;20120;-78
2022/08/23 01:47:58;;;;;;;17.10;11.93;;;16.60;1.00;;;;;;5033278;28;20036;-78
2022/08/23 01:50:24;;;;;;;18.05;12.07;;;16.70;1.00;;;;;;5030048;28;20375;-78
2022/08/23 01:52:50;;;;;;;17.38;11.27;;;16.20;1.00;;;;;;5031532;28;20034;-78
2022/08/23 01:55:17;;;;;;;19.50;12.20;;;16.10;1.00;;;;;;5025702;28;20040;-78
2022/08/23 01:57:45;;;;;;;17.40;12.55;;;16.60;1.00;;;;;;5033579;28;20087;-78
2022/08/23 02:00:12;;;;;;;17.77;12.52;;;16.30;1.00;;;;;;5021479;28;20040;-78
2022/08/23 02:02:37;;;;;;;19.13;13.30;;;16.10;1.00;;;;;;5023435;28;20071;-78
2022/08/23 02:05:05;;;;;;;18.45;13.00;;;16.50;1.00;;;;;;5016276;28;20117;-78
2022/08/23 02:07:31;;;;;;;17.20;11.55;;;16.30;1.00;;;;;;5018221;28;20048;-78
2022/08/23 02:09:57;;;;;;;23.17;13.82;;;16.40;1.00;;;;;;5038284;28;20034;-78
2022/08/23 02:12:23;;;;;;;19.88;13.75;;;16.00;1.00;;;;;;4996978;28;20044;-78
2022/08/23 02:14:49;;;;;;;18.65;13.70;;;16.00;1.00;;;;;;5032286;28;20052;-78
2022/08/23 02:17:15;;;;;;;17.67;13.48;;;16.30;1.00;;;;;;5047696;28;20033;-78
2022/08/23 02:19:42;;;;;;;20.48;14.68;;;16.20;1.00;;;;;;5033145;28;20513;-79
2022/08/23 02:22:08;;;;;;;22.65;15.25;;;16.40;1.00;;;;;;5036704;28;20412;-78
2022/08/23 02:24:38;;;;;;;19.63;12.45;;;16.30;1.00;;;;;;5053073;28;20494;-79
2022/08/23 02:27:04;;;;;;;18.58;13.57;;;16.20;1.00;;;;;;5043299;28;20182;-78
2022/08/23 02:29:30;;;;;;;19.73;14.48;;;16.00;1.00;;;;;;5015790;28;20408;-79
2022/08/23 02:31:57;;;;;;;22.55;15.35;;;16.00;1.00;;;;;;5029561;28;20029;-78
2022/08/23 02:34:22;;;;;;;21.90;14.57;;;16.00;1.00;;;;;;5052923;28;20033;-78
2022/08/23 02:36:48;;;;;;;20.50;15.10;;;16.20;1.00;;;;;;5029552;28;20068;-79
2022/08/23 02:39:16;;;;;;;21.02;16.05;;;15.70;1.00;;;;;;5045961;28;20094;-78
2022/08/23 02:41:41;;;;;;;18.27;13.05;;;16.40;1.00;;;;;;5045254;28;20115;-79
2022/08/23 02:44:08;;;;;;;19.00;14.63;;;16.30;1.00;;;;;;5035258;28;20041;-78
2022/08/23 02:46:34;;;;;;;19.27;13.93;;;16.30;1.00;;;;;;5052783;28;20414;-78
2022/08/23 02:48:59;;;;;;;19.63;15.25;;;16.20;1.00;;;;;;5015763;28;20033;-79
2022/08/23 02:51:25;;;;;;;23.20;15.55;;;16.00;1.00;;;;;;5029214;28;20092;-78
2022/08/23 02:53:51;;;;;;;21.20;14.55;;;15.70;1.00;;;;;;5050515;28;20033;-79
2022/08/23 02:56:16;;;;;;;21.05;14.80;;;16.10;1.00;;;;;;5054466;28;20040;-78
2022/08/23 02:58:44;;;;;;;23.70;15.93;;;15.90;1.00;;;;;;5053729;28;20036;-78
2022/08/23 03:01:20;;;;;;;20.48;15.60;;;15.60;1.00;;;;;;5051508;28;20044;-78
2022/08/23 03:03:46;;;;;;;20.90;15.27;;;16.20;1.00;;;;;;5021361;28;20229;-78
2022/08/23 03:06:13;;;;;;;20.38;14.88;;;16.00;1.00;;;;;;5055278;28;20053;-78
2022/08/23 03:08:39;;;;;;;19.63;14.60;;;16.20;1.00;;;;;;5054574;28;20045;-79
2022/08/23 03:11:12;;;;;;;22.98;15.32;;;16.30;1.00;;;;;;5030171;28;20040;-78
2022/08/23 03:13:38;;;;;;;20.45;14.85;;;15.90;1.00;;;;;;5036703;28;20045;-78
2022/08/23 03:16:04;;;;;;;19.95;14.93;;;16.10;1.00;;;;;;5049538;28;20102;-78
2022/08/23 03:18:30;;;;;;;18.63;14.30;;;;;;;;;;5037379;28;20442;-78
2022/08/23 03:20:56;;;;;;;21.13;13.98;;;15.90;1.00;;;;;;5018812;28;20033;-78
2022/08/23 03:23:22;;;;;;;21.85;15.07;;;;;;;;;;5035157;28;20044;-78
2022/08/23 03:25:48;;;;;;;22.55;15.43;;;15.90;1.00;;;;;;5032766;28;20045;-78
2022/08/23 03:28:13;;;;;;;18.83;15.48;;;16.30;1.00;;;;;;5032906;28;20040;-78
2022/08/23 03:30:39;;;;;;;21.23;15.68;;;16.20;1.00;;;;;;5034970;28;20645;-78
2022/08/23 03:33:05;;;;;;;19.63;14.40;;;15.90;1.00;;;;;;5026703;28;20045;-78
2022/08/23 03:35:30;;;;;;;18.58;14.25;;;15.80;1.00;;;;;;5009876;28;20060;-78
2022/08/23 03:37:56;;;;;;;19.80;14.38;;;15.80;1.00;;;;;;5015165;28;20037;-78
2022/08/23 03:40:21;;;;;;;22.83;16.10;;;15.90;1.00;;;;;;5034232;28;20442;-78
2022/08/23 03:42:49;;;;;;;19.33;12.82;;;16.30;1.00;;;;;;5054996;28;20136;-78
2022/08/23 03:45:15;;;;;;;17.23;14.63;;;15.90;1.00;;;;;;5033089;28;20438;-78
2022/08/23 03:47:41;;;;;;;20.52;15.15;;;16.00;1.00;;;;;;5047470;28;20210;-78
2022/08/23 03:50:07;;;;;;;22.55;14.68;;;15.80;1.00;;;;;;5050493;28;20045;-78
2022/08/23 03:52:33;;;;;;;27.70;17.95;;;15.90;1.00;;;;;;5012636;28;20478;-78
2022/08/23 03:54:59;;;;;;;17.50;12.90;;;15.70;1.00;;;;;;5056568;28;20087;-78
2022/08/23 03:57:24;;;;;;;20.20;13.70;;;15.60;1.00;;;;;;5054909;28;21300;-78
2022/08/23 03:59:50;;;;;;;21.08;14.43;;;15.80;1.00;;;;;;5033627;28;20033;-78
2022/08/23 04:02:15;;;;;;;26.17;16.85;;;15.60;1.00;;;;;;5051811;28;20033;-78
2022/08/23 04:04:41;;;;;;;21.10;15.88;;;15.70;1.00;;;;;;5015209;28;20037;-78
2022/08/23 04:07:07;;;;;;;22.85;16.55;;;15.60;1.00;;;;;;5032572;28;20187;-78
2022/08/23 04:09:35;;;;;;;28.48;16.42;;;15.50;1.00;;;;;;5050477;28;20044;-78
2022/08/23 04:12:01;;;;;;;22.25;16.75;;;15.80;1.00;;;;;;5015944;28;20504;-78
2022/08/23 04:14:27;;;;;;;22.10;15.68;;;15.50;1.00;;;;;;5017503;28;20033;-78
2022/08/23 04:16:52;;;;;;;23.98;14.20;;;15.50;1.00;;;;;;5026333;28;20039;-78
2022/08/23 04:19:18;;;;;;;23.02;16.23;;;15.50;1.00;;;;;;5052299;28;20047;-79
2022/08/23 04:21:49;;;;;;;23.63;17.20;;;;;;;;;;5030902;28;20048;-79
2022/08/23 04:24:15;;;;;;;18.30;14.05;;;;;;;;;;5050310;28;20041;-79
2022/08/23 04:26:42;;;;;;;23.95;16.25;;;15.50;1.00;;;;;;5024435;28;20528;-79
2022/08/23 04:29:10;;;;;;;23.52;16.90;;;;;;;;;;5010986;28;20116;-79
2022/08/23 04:31:36;;;;;;;26.42;18.08;;;;;;;;;;5011697;28;20072;-78
2022/08/23 04:34:02;;;;;;;23.95;17.33;;;15.50;1.00;;;;;;5044389;28;20025;-79
2022/08/23 04:36:31;;;;;;;22.92;18.50;;;;;;;;;;5030777;28;20059;-80
2022/08/23 04:38:56;;;;;;;26.23;17.77;;;15.60;1.00;;;;;;5021543;28;20045;-80
2022/08/23 04:44:06;;;;;;;24.77;18.13;;;;;;;;;;5042003;28;20105;-78
2022/08/23 04:46:32;;;;;;;24.15;17.73;;;15.50;1.00;;;;;;5028457;28;20047;-78
2022/08/23 04:48:58;;;;;;;22.20;16.83;;;15.30;1.00;;;;;;5006079;28;20425;-78
2022/08/23 04:51:24;;;;;;;24.80;18.63;;;15.70;1.00;;;;;;5034061;28;20064;-78
2022/08/23 04:53:49;;;;;;;25.35;18.15;;;15.60;1.00;;;;;;5041166;28;20475;-79
2022/08/23 04:56:15;;;;;;;22.05;18.77;;;15.80;1.00;;;;;;5035533;28;20047;-79
2022/08/23 04:58:40;;;;;;;22.70;18.63;;;15.70;1.00;;;;;;5039164;28;20045;-78
2022/08/23 05:01:09;;;;;;;25.48;18.73;;;;;;;;;;5036801;28;20478;-80
2022/08/23 05:03:35;;;;;;;27.20;17.83;;;15.70;1.00;;;;;;5037971;28;20076;-80
2022/08/23 05:06:03;;;;;;;26.92;18.98;;;;;;;;;;5005650;28;20040;-79
2022/08/23 05:08:30;;;;;;;25.55;18.83;;;15.70;1.00;;;;;;5021084;28;20052;-79
2022/08/23 05:11:07;;;;;;;24.92;17.83;;;15.70;1.00;;;;;;5014693;28;20041;-79
2022/08/23 05:13:34;;;;;;;27.67;18.23;;;15.70;1.00;;;;;;5042544;28;20029;-81
2022/08/23 05:15:59;;;;;;;23.92;17.30;;;16.00;1.00;;;;;;5042349;28;20534;-79
2022/08/23 05:18:25;;;;;;;26.00;18.98;;;15.70;1.00;;;;;;5032813;28;20116;-79
2022/08/23 05:20:52;;;;;;;20.75;17.48;;;16.20;1.00;;;;;;5038537;28;20390;-80
2022/08/23 05:23:18;;;;;;;22.95;16.90;;;15.90;1.00;;;;;;5016426;28;20048;-80
2022/08/23 05:25:49;;;;;;;25.83;17.88;;;15.90;1.00;;;;;;5040391;28;20049;-80
2022/08/23 05:28:22;;;;;;;22.95;16.88;;;16.10;1.00;;;;;;5020436;28;20068;-79
2022/08/23 05:30:55;;;;;;;19.70;17.08;;;;;;;;;;5024585;28;20056;-80
2022/08/23 05:33:21;;;;;;;21.40;16.35;;;16.70;1.00;;;;;;5047858;28;20034;-80
2022/08/23 05:35:47;;;;;;;19.70;16.40;;;16.50;1.00;;;;;;5029667;28;20041;-79
2022/08/23 05:38:14;;;;;;;21.63;17.30;;;;;;;;;;5045492;28;20121;-79
2022/08/23 05:40:39;;;;;;;18.50;15.65;;;16.90;1.00;;;;;;5023737;28;20084;-80
2022/08/23 05:43:05;;;;;;;22.27;17.35;;;16.80;1.00;;;;;;5038627;28;20063;-80
2022/08/23 05:45:31;;;;;;;21.25;16.98;;;17.10;1.00;;;;;;5022457;28;20045;-79
2022/08/23 05:47:57;;;;;;;21.10;16.67;;;16.60;1.00;;;;;;5017854;28;20029;-79
2022/08/23 05:50:22;;;;;;;17.58;15.43;;;16.70;1.00;;;;;;5034428;28;20406;-79
2022/08/23 05:52:48;;;;;;;21.90;14.95;;;16.80;1.00;;;;;;5013937;28;20056;-79
2022/08/23 05:55:14;;;;;;;19.10;15.95;;;17.00;1.00;;;;;;5027482;28;20037;-79
2022/08/23 05:57:40;;;;;;;19.50;15.15;;;17.10;1.00;;;;;;5044297;28;20041;-79
2022/08/23 06:00:14;;;;;;;19.98;14.73;;;16.70;1.00;;;;;;5010890;28;20424;-79
2022/08/23 06:02:40;;;;;;;21.52;15.23;;;17.00;1.00;;;;;;5046240;28;20037;-79
2022/08/23 06:05:07;;;;;;;19.77;16.63;;;16.70;1.00;;;;;;5021819;28;20045;-79
2022/08/23 06:07:34;;;;;;;19.55;14.55;;;16.70;1.00;;;;;;5026013;28;20041;-80
2022/08/23 06:10:00;;;;;;;17.42;14.32;;;17.30;1.00;;;;;;5044708;28;20042;-79
2022/08/23 06:12:26;;;;;;;16.60;13.55;;;17.40;1.00;;;;;;5013207;28;20037;-80
2022/08/23 06:14:51;;;;;;;17.95;13.82;;;17.20;1.00;;;;;;5040596;28;20401;-79
2022/08/23 06:17:17;;;;;;;16.98;13.43;;;17.30;1.00;;;;;;5046613;28;20042;-80
2022/08/23 06:19:43;;;;;;;18.55;14.75;;;17.30;1.00;;;;;;5111229;23;20587;-54
2022/08/23 06:22:09;;;;;;;19.58;15.48;;;17.10;1.00;;;;;;5032264;28;20091;-55
2022/08/23 06:24:35;;;;;;;18.08;14.07;;;17.40;1.00;;;;;;5013308;28;20069;-53
2022/08/23 06:27:01;;;;;;;21.00;15.02;;;17.20;1.00;;;;;;4997729;28;20570;-55
2022/08/23 06:29:27;;;;;;;22.73;16.27;;;;;;;;;;5019435;28;20044;-53
2022/08/23 06:31:52;;;;;;;16.50;14.52;;;17.70;1.00;;;;;;5032671;28;20029;-55
2022/08/23 06:34:36;;;;;;;17.58;13.88;;;17.50;1.00;;;;;;5035684;22;20377;-86
2022/08/23 06:37:11;;;;;;;22.95;16.60;;;17.80;1.00;;;;;;4962225;28;20085;-84
2022/08/23 06:39:37;;;;;;;18.20;13.50;;;17.90;1.00;;;;;;4981715;28;20044;-87
2022/08/23 06:42:12;;;;;;;20.58;16.23;;;18.10;1.00;;;;;;4966578;28;20038;-85
2022/08/23 06:44:38;;;;;;;20.42;15.38;;;18.10;1.00;;;;;;4999028;28;20042;-84
2022/08/23 06:47:08;;;;;;;18.33;14.10;;;18.20;1.00;;;;;;4959655;28;20042;-85
2022/08/23 06:49:34;;;;;;;17.65;14.63;;;18.20;1.00;;;;;;4959167;28;20145;-85
2022/08/23 06:52:03;;;;;;;16.80;13.55;;;;;;;;;;4967249;28;21192;-86
2022/08/23 06:54:31;;;;;;;24.10;14.50;;;18.40;1.00;;;;;;4973574;28;20816;-87
2022/08/23 06:56:58;;;;;;;18.92;14.23;;;18.60;1.00;;;;;;4975080;28;20377;-85
2022/08/23 06:59:24;;;;;;;19.83;11.65;;;18.80;1.00;;;;;;4967940;28;20080;-86
2022/08/23 07:01:54;;;;;;;17.55;14.43;;;18.90;1.00;;;;;;4965542;28;20042;-88
2022/08/23 07:04:27;;;;;;;16.42;13.40;;;19.10;1.00;;;;;;4979790;28;20086;-86
2022/08/23 07:06:54;;;;;;;17.58;11.90;;;18.90;1.00;;;;;;4979329;28;20046;-86
2022/08/23 07:09:20;;;;;;;14.90;12.00;;;;;;;;;;4957495;28;20046;-87
2022/08/23 07:11:46;;;;;;;14.10;11.98;;;19.10;1.00;;;;;;4973774;28;20406;-86
2022/08/23 07:14:15;;;;;;;16.67;11.80;;;19.70;1.00;;;;;;4973761;28;20133;-85
2022/08/23 07:16:47;;;;;;;16.52;12.40;;;19.40;1.00;;;;;;4985486;28;20137;-88
2022/08/23 07:19:13;;;;;;;14.80;13.10;;;19.40;1.00;;;;;;4967401;28;20123;-85
2022/08/23 07:21:40;;;;;;;14.73;11.68;;;20.00;1.00;;;;;;4992543;28;20045;-85
2022/08/23 07:24:07;;;;;;;14.75;11.77;;;19.40;1.00;;;;;;4994018;28;20069;-85
2022/08/23 07:26:34;;;;;;;14.57;11.18;;;19.70;1.00;;;;;;4975495;28;20046;-85
2022/08/23 07:29:01;;;;;;;23.60;10.07;;;;;;;;;;4953441;28;20045;-84
2022/08/23 07:31:30;;;;;;;14.25;9.50;;;19.70;1.00;;;;;;4973944;28;20128;-85
2022/08/23 07:34:00;;;;;;;13.60;9.63;;;;;;;;;;4970167;28;20541;-86
2022/08/23 07:36:30;;;;;;;11.60;8.10;;;19.90;1.00;;;;;;4966333;28;20038;-86
2022/08/23 07:38:56;;;;;;;11.57;8.88;;;19.90;1.00;;;;;;4975574;28;20068;-86
2022/08/23 07:41:29;;;;;;;12.82;9.68;;;19.70;1.00;;;;;;4984343;28;20144;-85
2022/08/23 07:43:57;;;;;;;14.02;8.57;;;20.00;1.00;;;;;;4984662;28;20572;-85
2022/08/23 07:46:24;;;;;;;10.32;8.38;;;20.20;1.00;;;;;;4987177;28;20046;-85
2022/08/23 07:48:51;;;;;;;13.57;8.52;;;20.10;1.00;;;;;;4998464;28;20121;-85
2022/08/23 07:51:17;;;;;;;10.35;7.70;;;;;;;;;;4989616;28;20049;-88
2022/08/23 07:53:46;;;;;;;11.77;8.98;;;;;;;;;;4973773;28;20043;-86
2022/08/23 07:56:17;;;;;;;12.48;7.90;;;20.40;1.00;;;;;;4982989;28;20370;-88
2022/08/23 07:58:43;;;;;;;11.63;8.50;;;20.40;1.00;;;;;;4993627;28;20535;-86
2022/08/23 08:01:22;;;;;;;14.63;9.93;;;21.00;1.00;;;;;;4970867;28;20508;-86
2022/08/23 08:03:51;;;;;;;10.43;7.20;;;;;;;;;;4999105;28;20156;-86
2022/08/23 08:06:26;;;;;;;12.38;9.10;;;21.20;1.00;;;;;;4988429;28;20065;-85
2022/08/23 08:08:53;;;;;;;10.70;7.72;;;21.50;1.00;;;;;;4986574;28;20062;-86
2022/08/23 08:11:21;;;;;;;9.75;6.97;;;21.30;1.00;;;;;;4980771;28;20121;-87
2022/08/23 08:13:49;;;;;;;13.07;8.40;;;21.70;1.00;;;;;;4978051;28;20104;-86
2022/08/23 08:16:27;;;;;;;10.82;8.48;;;21.50;1.00;;;;;;4966062;28;20437;-87
2022/08/23 08:18:55;;;;;;;11.65;7.82;;;21.40;1.00;;;;;;4953384;28;20046;-87
2022/08/23 08:21:21;;;;;;;15.10;8.75;;;21.70;1.00;;;;;;4960997;28;20048;-86
2022/08/23 08:23:47;;;;;;;13.45;8.23;;;21.90;1.00;;;;;;4968229;28;20080;-87
2022/08/23 08:26:13;;;;;;;13.27;9.25;;;21.70;1.00;;;;;;4959146;28;20432;-87
2022/08/23 08:28:39;;;;;;;12.13;8.57;;;21.70;1.00;;;;;;4984047;28;20081;-87
2022/08/23 08:31:06;;;;;;;9.65;6.82;;;21.80;1.00;;;;;;4999745;28;20565;-86
2022/08/23 08:33:32;;;;;;;10.38;8.10;;;22.10;1.00;;;;;;4992261;28;20077;-87
2022/08/23 08:35:58;;;;;;;9.25;7.53;;;22.20;1.00;;;;;;4973104;28;20030;-88
2022/08/23 08:38:24;;;;;;;10.18;7.65;;;;;;;;;;4976284;28;20041;-87
2022/08/23 08:41:23;;;;;;;9.32;8.00;;;22.20;1.00;;;;;;4969984;28;20055;-87
2022/08/23 08:43:58;;;;;;;10.13;7.45;;;22.40;1.00;;;;;;4976737;28;20045;-87
2022/08/23 08:46:46;;;;;;;10.25;7.65;;;22.80;1.00;;;;;;4990514;28;20069;-87
2022/08/23 08:49:34;;;;;;;11.45;7.22;;;23.10;1.00;;;;;;4975460;28;20642;-87
2022/08/23 08:52:12;;;;;;;9.57;6.85;;;23.40;1.00;;;;;;4980489;28;20104;-87
2022/08/23 08:54:40;;;;;;;13.07;7.18;;;23.80;1.00;;;;;;4980552;28;20042;-86
2022/08/23 08:57:07;;;;;;;11.20;6.78;;;24.00;1.00;;;;;;4989924;28;20030;-86
2022/08/23 08:59:52;;;;;;;8.93;6.32;;;;;;;;;;4977849;28;20034;-86
2022/08/23 09:02:21;;;;;;;10.32;7.53;;;24.20;1.00;;;;;;4974299;28;20127;-86
2022/08/23 09:04:47;;;;;;;11.88;7.63;;;;;;;;;;4982450;28;20041;-87
2022/08/23 09:07:33;;;;;;;9.73;7.07;;;24.30;1.00;;;;;;4995403;28;20053;-86
2022/08/23 09:10:05;;;;;;;11.00;7.03;;;24.10;1.00;;;;;;4964814;28;20141;-86
2022/08/23 09:12:37;;;;;;;11.45;7.45;;;24.20;1.00;;;;;;4963483;28;20080;-87
2022/08/23 09:15:16;;;;;;;11.50;7.75;;;;;;;;;;4965069;28;20543;-86
2022/08/23 09:17:53;;;;;;;10.52;7.20;;;24.20;1.00;;;;;;4966338;28;20513;-87
2022/08/23 09:20:22;;;;;;;10.23;7.55;;;24.40;1.00;;;;;;4977042;28;20452;-86
2022/08/23 09:22:56;;;;;;;10.23;7.80;;;24.30;1.00;;;;;;4971229;28;20054;-86
2022/08/23 09:25:22;;;;;;;11.15;8.23;;;24.50;1.00;;;;;;4962596;28;20037;-86
2022/08/23 09:27:48;;;;;;;10.55;7.85;;;25.40;1.00;;;;;;4992023;28;20517;-87
2022/08/23 09:30:16;;;;;;;11.95;7.97;;;;;;;;;;4977197;28;20120;-86
2022/08/23 09:32:54;;;;;;;10.95;7.30;;;;;;;;;;4902380;28;20775;-89
2022/08/23 09:35:47;;;;;;;12.25;8.20;;;;;;;;;;4910061;28;20606;-90
2022/08/23 09:38:38;;;;;;;;;;;;;;;;;;;;;
2022/08/23 09:41:19;;;;;;;13.07;8.23;;;;;;;;;;4918587;28;20511;-89
2022/08/23 09:44:01;;;;;;;10.45;6.88;;;;;;;;;;4873975;28;20217;-86
2022/08/23 09:46:40;;;;;;;10.10;6.63;;;;;;;;;;4879116;28;20768;-87
2022/08/23 09:49:26;;;;;;;9.65;7.55;;;24.90;99.90;;;;;;5095736;22;20041;-78
2022/08/23 10:02:33;;;;;;;10.38;7.28;;;25.50;99.90;;;;;;5137569;22;20139;-59
2022/08/23 10:05:26;;;;;;;11.45;6.10;;;25.30;99.90;;;;;;5014549;28;20368;-58
2022/08/23 10:08:01;;;;;;;10.82;7.90;;;25.20;99.90;;;;;;5045316;28;20044;-57
2022/08/23 10:17:01;;;;;;;13.05;9.27;;;25.70;99.90;;;;;;1473319;26;20080;-57
2022/08/23 10:19:55;;;;;;;12.02;7.00;;;25.90;99.90;;;;;;4994352;28;20045;-61
2022/08/23 10:22:49;;;;;;;10.93;7.40;;;;;;;;;;4981391;28;20084;-57
2022/08/23 10:25:41;;;;;;;13.38;7.68;;;25.90;99.90;;;;;;4947053;28;20034;-56
2022/08/23 10:31:35;;;;;;;10.18;6.38;;;;;;;;;;4988287;28;20141;-62
2022/08/23 10:34:30;;;;;;;12.27;5.72;;;;;;;;;;4995595;28;20053;-59
2022/08/23 10:37:09;;;;;;;10.57;6.68;;;;;;;;;;5007566;28;20463;-58
2022/08/23 10:39:44;;;;;;;9.82;6.78;;;;;;;;;;4994120;28;20046;-60
2022/08/23 10:45:04;;;;;;;15.77;7.55;;;;;;;;;;4300933;22;20402;-60
2022/08/23 10:47:50;;;;;;;12.18;6.70;;;;;;;;;;5031295;28;20610;-59
2022/08/23 10:50:18;;;;;;;;;;;;;;;;;;5029880;28;20586;-61
2022/08/23 10:52:56;;;;;;;17.08;6.95;;;;;;;;;;5033710;28;19935;-58
2022/08/23 10:55:53;;;;;;;10.73;8.98;;;;;;;;;;5006265;28;20040;-57
2022/08/23 10:58:25;;;;;;;10.43;7.25;;;;;;;;;;5004259;28;20117;-60
2022/08/23 11:03:31;;;;;;;11.93;6.25;;;;;;;;;;5048394;28;20475;-58
2022/08/23 11:06:16;;;;;;;9.68;5.80;;;;;;;;;;5047600;28;20484;-58
2022/08/23 11:08:45;;;;;;;10.57;7.25;;;;;;;;;;5022335;28;20045;-59
2022/08/23 11:11:33;;;;;;;10.13;5.40;;;;;;;;;;5043161;28;20048;-59
2022/08/23 11:13:59;;;;;;;9.73;5.15;;;;;;;;;;4958348;28;20438;-58
2022/08/23 11:16:30;;;;;;;10.50;5.35;;;;;;;;;;5011149;28;20075;-57
2022/08/23 11:18:58;;;;;;;10.32;5.75;;;;;;;;;;5092326;22;20044;-55
2022/08/23 11:21:32;;;;;;;11.50;8.02;;;;;;;;;;5053967;28;20037;-55
2022/08/23 11:24:00;;;;;;;9.95;5.65;;;;;;;;;;5049393;28;20116;-56
2022/08/23 11:26:27;;;;;;;9.23;5.35;;;;;;;;;;5049785;28;20045;-54
2022/08/23 11:28:54;;;;;;;9.85;5.53;;;;;;;;;;5029728;28;20123;-53
2022/08/23 11:31:30;;;;;;;11.05;5.53;;;;;;;;;;5044834;28;20041;-54
2022/08/23 11:34:12;;;;;;;9.50;6.27;;;;;;;;;;5034176;28;20402;-53
2022/08/23 11:36:39;;;;;;;10.52;6.50;;;;;;;;;;5026311;23;20049;-87
2022/08/23 11:39:14;;;;;;;10.85;5.72;;;;;;;;;;4990079;28;20053;-89
2022/08/23 11:42:10;;;;;;;11.15;5.50;;;;;;;;;;4969548;28;20781;-90
2022/08/23 11:44:58;;;;;;;11.23;4.40;;;;;;;;;;5003980;28;20048;-88
2022/08/23 11:58:14;;;;;;;10.35;4.53;;;;;;;;;;4935914;28;20563;-88
2022/08/23 12:01:04;;;;;;;10.30;5.88;;;;;;;;;;4923934;28;20455;-87
2022/08/23 12:03:35;;;;;;;11.32;4.90;;;;;;;;;;4945810;28;20932;-85
2022/08/23 12:06:02;;;;;;;8.63;5.03;;;;;;;;;;4967526;28;20326;-88
2022/08/23 12:08:32;;;;;;;8.00;4.53;;;;;;;;;;4953369;28;20048;-90
2022/08/23 12:11:09;;;;;;;8.82;4.93;;;;;;;;;;4989608;28;20052;-89
2022/08/23 12:13:47;;;;;;;9.88;4.30;;;;;;;;;;5005557;28;20049;-88
2022/08/23 12:16:14;;;;;;;7.22;4.70;;;;;;;;;;4988730;28;20045;-86
2022/08/23 12:18:53;;;;;;;8.25;4.07;;;;;;;;;;5010422;28;20041;-88
2022/08/23 12:21:21;;;;;;;11.00;4.35;;;32.90;99.90;;;;;;4985570;28;20038;-86
2022/08/23 12:23:49;;;;;;;9.00;4.45;;;;;;;;;;5018805;28;20037;-87
2022/08/23 12:26:39;;;;;;;8.80;4.03;;;;;;;;;;5004500;28;20041;-88
2022/08/23 12:29:08;;;;;;;8.05;4.13;;;;;;;;;;5014330;28;20057;-86
2022/08/23 12:31:39;;;;;;;8.00;4.05;;;;;;;;;;4989026;28;20037;-87
2022/08/23 12:34:15;;;;;;;8.25;4.22;;;;;;;;;;4996494;28;20041;-88
2022/08/23 12:36:41;;;;;;;9.73;4.22;;;;;;;;;;5004784;28;20041;-87
2022/08/23 12:39:18;;;;;;;7.05;3.90;;;;;;;;;;5037890;28;20040;-88
2022/08/23 12:41:50;;;;;;;7.57;3.45;;;;;;;;;;4993181;28;20045;-88
2022/08/23 12:44:17;;;;;;;8.05;3.50;;;;;;;;;;5003252;28;21345;-87
2022/08/23 12:46:44;;;;;;;10.38;4.03;;;;;;;;;;5015795;28;20075;-87
2022/08/23 12:49:26;;;;;;;9.90;3.63;;;37.00;99.90;;;;;;5032281;28;20041;-88
2022/08/23 12:51:55;;;;;;;7.93;4.05;;;38.30;99.90;;;;;;5019736;28;20048;-88
2022/08/23 12:54:31;;;;;;;7.63;3.63;;;36.70;99.90;;;;;;4998268;28;20543;-88
2022/08/23 12:56:58;;;;;;;7.60;3.10;;;37.40;99.90;;;;;;4999290;28;20068;-87
2022/08/23 12:59:39;;;;;;;7.60;3.25;;;37.30;99.90;;;;;;5017150;28;20037;-88
2022/08/23 13:02:07;;;;;;;9.02;3.40;;;;;;;;;;5025647;28;20088;-87
2022/08/23 13:04:36;;;;;;;9.48;3.45;;;37.60;99.90;;;;;;5000894;28;20053;-88
2022/08/23 13:07:07;;;;;;;8.60;3.50;;;37.70;99.90;;;;;;5005021;28;20165;-87
2022/08/23 13:09:41;;;;;;;8.95;4.20;;;37.30;99.90;;;;;;5011246;28;20056;-89
2022/08/23 13:12:09;;;;;;;8.30;3.53;;;37.10;99.90;;;;;;5010167;28;20041;-88
2022/08/23 13:14:42;;;;;;;10.90;3.53;;;37.50;99.90;;;;;;5009346;28;20408;-88
2022/08/23 13:17:27;;;;;;;9.35;3.47;;;;;;;;;;4943103;28;20092;-89
2022/08/23 13:20:12;;;;;;;10.65;3.17;;;36.90;99.90;;;;;;4937518;28;20049;-92
2022/08/23 13:23:16;;;;;;;8.25;3.58;;;36.80;99.90;;;;;;4977155;28;20193;-90
2022/08/23 13:26:41;;;;;;;8.00;3.40;;;37.50;99.90;;;;;;4957502;28;20564;-93
2022/08/23 13:33:19;;;;;;;7.53;2.95;;;39.10;99.90;;;;;;4943695;28;20246;-91
2022/08/23 13:53:56;;;;;;;8.82;3.83;;;;;;;;;;4829714;29;20054;-93
2022/08/23 13:59:37;;;;;;;11.05;3.83;;;;;;;;;;4875096;28;20412;-89
2022/08/23 14:02:49;;;;;;;8.40;4.25;;;42.00;99.90;;;;;;4927197;28;20390;-88
2022/08/23 14:05:23;;;;;;;8.80;3.90;;;39.80;99.90;;;;;;4888899;28;20208;-89
2022/08/23 14:07:54;;;;;;;8.65;3.85;;;39.40;99.90;;;;;;4922255;28;20326;-89
2022/08/23 14:10:24;;;;;;;8.15;3.88;;;38.50;99.90;;;;;;4913413;28;20134;-89
2022/08/23 14:13:01;;;;;;;6.60;3.67;;;38.10;99.90;;;;;;4939056;28;20480;-89
2022/08/23 14:15:52;;;;;;;9.73;4.30;;;;;;;;;;4908023;28;20037;-88
2022/08/23 14:18:23;;;;;;;7.38;3.55;;;37.90;99.90;;;;;;4921676;28;20090;-87
2022/08/23 14:20:55;;;;;;;7.32;3.33;;;36.10;99.90;;;;;;4926407;28;20327;-88
2022/08/23 14:23:22;;;;;;;6.95;3.65;;;;;;;;;;4924279;28;20346;-87
2022/08/23 14:25:54;;;;;;;9.00;3.58;;;;;;;;;;4924622;28;20370;-88
2022/08/23 14:29:08;;;;;;;8.40;3.33;;;;;;;;;;4908194;28;20466;-88
2022/08/23 14:31:19;;;;;;;8.20;3.95;;;;;;;;;;4917161;28;20208;-90
2022/08/23 14:34:31;;;;;;;;;;;41.50;99.90;;;;;;4920112;28;20374;-89
2022/08/23 14:37:17;;;;;;;6.60;3.28;;;40.20;99.90;;;;;;5037212;23;20248;-59
2022/08/23 14:42:12;;;;;;;8.50;4.03;;;;;;;;;;5008671;28;20442;-57
2022/08/23 14:49:52;;;;;;;7.82;3.83;;;39.20;99.90;;;;;;5029578;28;20057;-58
2022/08/23 14:52:19;;;;;;;8.68;3.83;;;;;;;;;;4997640;28;20060;-57